TU282 / TS-IMM 7700 Squawk Report (29th of July, 2020)

Aircraft A320 Reg No. TS-IMM Age 21 years old
Model A320 Jet engines 2 First flight 07-02-99
Registered 26-03-99 Rollout 01-99 Delivered 26-03-99
Construction No. 0975 Line No. N/A Series 211
ADSHEX 02A18C Airline name Tunisair Owner N/A
Airfield based Tunis-Carthage~ ~TS First tracked N/A

Flight history for TS-IMM

Route Flight No Date Playback
Zurich (ZRH) - Zarzis (DJE) TU485 2020-08-08 20:40:00
Zarzis (DJE) - Zurich (ZRH) TU484 2020-08-08 17:54:00
Orly (ORY) - Zarzis (DJE) TU635 2020-08-08 15:46:00
Zarzis (DJE) - Orly (ORY) TU634 2020-08-08 10:53:00
Saint Exupery (LYS) - Zarzis (DJE) TU589 2020-08-07 19:00:00
Zarzis (DJE) - Saint Exupery (LYS) TU588 2020-08-07 16:37:00
Cote D Azur (NCE) - Habib Bourguiba International (MIR) - Zarzis (DJE) TU683 2020-08-06 20:01:00
Zarzis (DJE) - Habib Bourguiba International (MIR) - Cote D Azur (NCE) TU682 2020-08-06 17:32:00
Orly (ORY) - Zarzis (DJE) TU635 2020-08-06 14:12:00
Zarzis (DJE) - Orly (ORY) TU634 2020-08-06 09:19:00
Geneve Cointrin (GVA) - Zurich (ZRH) - Zarzis (DJE) TU875 2020-08-06 06:52:00
Zarzis (DJE) - Geneve Cointrin (GVA) - Zurich (ZRH) TU874 2020-08-05 17:02:00
Orly (ORY) - Zarzis (DJE) TU635 2020-08-05 15:02:00
Zarzis (DJE) - Orly (ORY) TU634 2020-08-05 08:33:00
Orly (ORY) - Zarzis (DJE) TU635 2020-08-04 12:47:00
Zarzis (DJE) - Orly (ORY) TU634 2020-08-04 09:20:00
Saint Exupery (LYS) - Zarzis (DJE) TU589 2020-08-04 06:53:00
Zarzis (DJE) - Saint Exupery (LYS) TU588 2020-08-03 17:21:00
Cote D Azur (NCE) - Habib Bourguiba International (MIR) - Zarzis (DJE) TU683 2020-08-03 15:36:00
Zarzis (DJE) - Habib Bourguiba International (MIR) - Cote D Azur (NCE) TU682 2020-08-03 10:11:00
Time Lat Lon Altitude Heading Speed Vertical Rate
2020-07-29 16:38:57 GMT 43.609818 1.381595 725 323 127 -768
2020-07-29 16:38:53 GMT 43.608398 1.383128 775 323 127 -640
2020-07-29 16:38:41 GMT 43.602222 1.389574 875 323 127 -640
2020-07-29 16:38:33 GMT 43.599197 1.392713 950 324 130 -768
2020-07-29 16:38:23 GMT 43.594074 1.397945 1,075 322 129 -512
2020-07-29 16:38:12 GMT 43.588440 1.403951 1,175 323 129 -512
2020-07-29 16:38:08 GMT 43.587048 1.405334 1,225 323 130 -832
2020-07-29 16:37:59 GMT 43.582020 1.410697 1,350 323 129 -640
2020-07-29 16:37:49 GMT 43.577457 1.415536 1,450 323 130 -896
2020-07-29 16:37:45 GMT 43.576015 1.417040 1,475 324 131 -1024
2020-07-29 16:37:41 GMT 43.573452 1.419656 1,575 324 133 -896
2020-07-29 16:37:38 GMT 43.572510 1.420686 1,600 324 133 -704
2020-07-29 16:37:31 GMT 43.568474 1.424691 1,700 323 134 -640
2020-07-29 16:37:28 GMT 43.567474 1.425668 1,725 324 133 -768
2020-07-29 16:37:22 GMT 43.564178 1.429053 1,800 323 134 -640
2020-07-29 16:37:17 GMT 43.562141 1.431231 1,850 323 133 -960
2020-07-29 16:37:11 GMT 43.559097 1.434482 1,925 323 134 -640
2020-07-29 16:37:08 GMT 43.557205 1.436397 1,950 324 135 -576
2020-07-29 16:37:01 GMT 43.553833 1.439912 2,000 323 137 -320
2020-07-29 16:36:57 GMT 43.552139 1.441700 2,025 324 137 -448
2020-07-29 16:36:51 GMT 43.548687 1.445225 2,100 323 134 -448
2020-07-29 16:36:47 GMT 43.547150 1.446874 2,125 324 131 -640
2020-07-29 16:36:41 GMT 43.543716 1.450259 2,200 324 130 -768
2020-07-29 16:36:37 GMT 43.542206 1.451792 2,575 324 130 -832
2020-07-29 16:36:27 GMT 43.536957 1.457193 2,575 324 130 -832
2020-07-29 16:36:21 GMT 43.533978 1.460266 2,475 322 130 -896
2020-07-29 16:36:17 GMT 43.532272 1.462140 2,525 323 131 -896
2020-07-29 16:36:07 GMT 43.524857 1.469869 2,725 323 134 -704
2020-07-29 16:35:56 GMT 43.521873 1.472953 2,800 323 135 -768
2020-07-29 16:35:52 GMT 43.519638 1.475298 2,850 324 134 -640
2020-07-29 16:35:39 GMT 43.513401 1.481650 2,900 324 127 -64
2020-07-29 16:35:35 GMT 43.511536 1.483601 2,900 324 128 -192
2020-07-29 16:35:29 GMT 43.508606 1.486540 2,925 324 130 128
2020-07-29 16:35:22 GMT 43.504898 1.490308 2,925 324 129 64
2020-07-29 16:35:16 GMT 43.501877 1.493374 2,925 324 130 128
2020-07-29 16:35:11 GMT 43.499947 1.495383 2,900 324 140 -128
2020-07-29 16:35:01 GMT 43.494553 1.500847 2,925 324 148 -192
2020-07-29 16:34:53 GMT 43.490124 1.505258 3,150 325 153 -448
2020-07-29 16:34:49 GMT 43.488235 1.507235 2,975 324 163 -448
2020-07-29 16:34:40 GMT 43.479881 1.515852 3,150 322 168 -832
2020-07-29 16:34:29 GMT 43.475098 1.521415 3,275 318 172 -832
2020-07-29 16:34:18 GMT 43.468872 1.529846 3,375 313 176 -960
2020-07-29 16:34:08 GMT 43.464615 1.539655 3,575 296 180 -960
2020-07-29 16:33:59 GMT 43.461594 1.548306 3,675 296 184 -384
2020-07-29 16:33:48 GMT 43.457539 1.559993 3,725 296 193 0
2020-07-29 16:33:38 GMT 43.453720 1.571173 3,775 296 202 -1024
2020-07-29 16:33:28 GMT 43.449692 1.582862 3,950 296 204 -1088
2020-07-29 16:33:17 GMT 43.445206 1.595764 4,225 296 204 -1152
2020-07-29 16:33:07 GMT 43.440857 1.608028 4,375 296 204 -1152
2020-07-29 16:33:00 GMT 43.437607 1.617290 4,525 296 204 -1152
2020-07-29 16:32:51 GMT 43.433983 1.627938 4,675 296 205 -1216
2020-07-29 16:32:47 GMT 43.432709 1.631661 4,750 296 205 -1152
2020-07-29 16:32:44 GMT 43.431469 1.635328 4,800 296 205 -960
2020-07-29 16:32:36 GMT 43.428535 1.643895 5,175 295 210 -960
2020-07-29 16:32:33 GMT 43.426987 1.648460 4,975 296 207 -960
2020-07-29 16:32:24 GMT 43.423229 1.659328 5,100 296 208 -960
2020-07-29 16:32:16 GMT 43.418655 1.672668 5,275 295 210 -960
2020-07-29 16:32:06 GMT 43.415779 1.681039 5,475 296 210 -960
2020-07-29 16:32:03 GMT 43.414478 1.684832 5,425 296 210 -896
2020-07-29 16:31:57 GMT 43.412292 1.691128 5,500 296 209 -1024
2020-07-29 16:31:54 GMT 43.410461 1.696366 5,575 296 209 -1024
2020-07-29 16:31:47 GMT 43.407440 1.704989 5,675 296 208 -1024
2020-07-29 16:31:43 GMT 43.406250 1.708438 5,725 296 207 -1024
2020-07-29 16:31:36 GMT 43.402981 1.717856 5,850 296 205 -960
2020-07-29 16:31:33 GMT 43.402084 1.720446 5,875 296 205 -960
2020-07-29 16:31:28 GMT 43.399796 1.727025 5,975 296 205 -1024
2020-07-29 16:31:23 GMT 43.397766 1.732832 6,050 296 206 -960
2020-07-29 16:31:18 GMT 43.395950 1.738129 6,125 296 205 -1024
2020-07-29 16:31:15 GMT 43.394600 1.741987 6,175 296 206 -960
2020-07-29 16:31:12 GMT 43.393616 1.744782 6,200 296 205 -1024
2020-07-29 16:31:08 GMT 43.391666 1.750423 6,275 296 205 -1024
2020-07-29 16:31:03 GMT 43.389313 1.757174 6,375 296 204 -1024
2020-07-29 16:30:52 GMT 43.385330 1.768543 6,475 296 202 -896
2020-07-29 16:30:42 GMT 43.381054 1.780701 6,675 296 202 -960
2020-07-29 16:30:37 GMT 43.378586 1.787894 6,750 296 202 -960
2020-07-29 16:30:32 GMT 43.377090 1.792241 6,800 296 202 -896
2020-07-29 16:30:22 GMT 43.373016 1.803930 6,950 296 201 -640
2020-07-29 16:30:12 GMT 43.368809 1.815948 6,975 296 200 0
2020-07-29 16:30:06 GMT 43.366760 1.821769 7,000 296 200 0
2020-07-29 16:30:01 GMT 43.364548 1.827946 7,000 296 201 0
2020-07-29 16:29:55 GMT 43.362305 1.834397 7,000 296 201 0
2020-07-29 16:29:51 GMT 43.360657 1.839124 7,000 296 201 -64
2020-07-29 16:29:45 GMT 43.358055 1.846684 7,000 296 202 0
2020-07-29 16:29:41 GMT 43.356426 1.851392 7,000 296 202 -64
2020-07-29 16:29:37 GMT 43.354797 1.856101 7,000 296 204 0
2020-07-29 16:29:31 GMT 43.352417 1.863077 7,000 296 205 0
2020-07-29 16:29:20 GMT 43.348160 1.875277 7,000 296 214 64
2020-07-29 16:29:11 GMT 43.343399 1.888818 6,975 296 224 64
2020-07-29 16:29:00 GMT 43.338821 1.901912 6,975 296 238 0
2020-07-29 16:28:50 GMT 43.334034 1.915676 6,975 296 246 -64
2020-07-29 16:28:40 GMT 43.329071 1.929889 7,000 296 248 -64
2020-07-29 16:28:28 GMT 43.323326 1.946280 7,000 296 251 -64
2020-07-29 16:28:19 GMT 43.318485 1.959948 7,000 296 258 0
2020-07-29 16:28:10 GMT 43.313828 1.973196 6,975 296 282 -64
2020-07-29 16:27:59 GMT 43.304939 1.998465 6,975 296 282 -64
2020-07-29 16:27:49 GMT 43.302109 2.006602 6,975 296 284 -64
2020-07-29 16:27:39 GMT 43.296341 2.023017 7,000 296 284 0
2020-07-29 16:27:28 GMT 43.290508 2.039664 7,000 296 284 0
2020-07-29 16:27:18 GMT 43.284622 2.056551 7,000 296 282 0
2020-07-29 16:27:08 GMT 43.278763 2.073222 6,975 296 283 0
2020-07-29 16:26:58 GMT 43.272995 2.089510 6,975 296 284 0
2020-07-29 16:26:47 GMT 43.267044 2.106437 6,975 296 284 0
2020-07-29 16:26:37 GMT 43.261227 2.122977 6,975 296 284 64
2020-07-29 16:26:27 GMT 43.255325 2.139907 6,975 296 285 -64
2020-07-29 16:26:16 GMT 43.249310 2.156982 7,000 296 284 -192
2020-07-29 16:26:06 GMT 43.243561 2.173249 7,050 296 282 -896
2020-07-29 16:25:56 GMT 43.237625 2.190268 7,225 296 282 -1216
2020-07-29 16:25:46 GMT 43.231934 2.206272 7,400 296 282 -1216
2020-07-29 16:25:35 GMT 43.225521 2.224339 7,625 296 284 -1344
2020-07-29 16:25:25 GMT 43.220032 2.239870 7,800 296 287 -1152
2020-07-29 16:25:15 GMT 43.214035 2.256796 8,000 296 289 -1280
2020-07-29 16:25:05 GMT 43.207993 2.273851 8,225 296 291 -1280
2020-07-29 16:24:54 GMT 43.201828 2.291173 8,425 296 291 -1280
2020-07-29 16:24:44 GMT 43.195908 2.307832 8,625 297 289 -1600
2020-07-29 16:24:38 GMT 43.192375 2.317854 8,775 296 288 -1600
2020-07-29 16:24:33 GMT 43.189270 2.326547 8,925 296 288 -1600
2020-07-29 16:24:24 GMT 43.184006 2.341365 9,125 296 288 -1600
2020-07-29 16:24:13 GMT 43.177872 2.358739 9,375 296 288 -1280
2020-07-29 16:24:03 GMT 43.171803 2.375663 9,825 296 286 -1216
2020-07-29 16:23:55 GMT 43.167423 2.387957 9,725 296 288 -1216
2020-07-29 16:23:52 GMT 43.165703 2.392731 9,775 296 288 -1152
2020-07-29 16:23:45 GMT 43.161560 2.404371 9,900 296 288 -1152
2020-07-29 16:23:42 GMT 43.159836 2.409200 9,950 296 286 -1216
2020-07-29 16:23:35 GMT 43.155834 2.420589 10,075 296 286 -1152
2020-07-29 16:23:32 GMT 43.153786 2.426278 10,150 296 286 -1216
2020-07-29 16:23:22 GMT 43.147919 2.442758 10,300 296 286 -1152
2020-07-29 16:23:12 GMT 43.141983 2.459468 10,525 296 288 -1664
2020-07-29 16:23:01 GMT 43.135910 2.476632 10,775 296 291 -1664
2020-07-29 16:22:51 GMT 43.129810 2.493766 11,050 297 292 -1600
2020-07-29 16:22:41 GMT 43.123760 2.510572 11,325 297 296 -1728
2020-07-29 16:22:35 GMT 43.120056 2.521043 11,475 296 296 -1664
2020-07-29 16:22:31 GMT 43.117519 2.528098 11,600 297 298 -1600
2020-07-29 16:22:23 GMT 43.112865 2.541046 11,800 297 299 -1600
2020-07-29 16:22:20 GMT 43.111313 2.545379 11,850 297 300 -1600
2020-07-29 16:22:10 GMT 43.104954 2.563084 12,125 297 302 -1728
2020-07-29 16:22:00 GMT 43.098450 2.581212 12,425 296 305 -1728
2020-07-29 16:21:52 GMT 43.093506 2.595073 12,650 296 307 -1856
2020-07-29 16:21:49 GMT 43.092197 2.598790 12,700 296 308 -1856
2020-07-29 16:21:43 GMT 43.087261 2.612653 12,950 296 310 -1984
2020-07-29 16:21:38 GMT 43.085312 2.618195 13,050 296 310 -2048
2020-07-29 16:21:32 GMT 43.081257 2.629591 13,250 296 312 -1920
2020-07-29 16:21:29 GMT 43.079350 2.634822 13,350 296 312 -1920
2020-07-29 16:21:22 GMT 43.074600 2.648216 13,575 296 312 -2048
2020-07-29 16:21:18 GMT 43.072540 2.653965 13,675 296 313 -1984
2020-07-29 16:21:11 GMT 43.067848 2.667062 13,900 296 314 -2048
2020-07-29 16:21:08 GMT 43.066174 2.671705 14,000 296 314 -1984
2020-07-29 16:21:02 GMT 43.061737 2.684177 14,200 296 315 -1984
2020-07-29 16:20:57 GMT 43.059219 2.691139 14,325 297 316 -2048
2020-07-29 16:20:51 GMT 43.055237 2.702253 14,550 296 317 -2112
2020-07-29 16:20:47 GMT 43.052582 2.709699 14,675 297 318 -2112
2020-07-29 16:20:41 GMT 43.048389 2.721274 14,875 297 319 -2112
2020-07-29 16:20:37 GMT 43.046173 2.727548 15,000 297 319 -2112
2020-07-29 16:20:31 GMT 43.042099 2.738789 15,200 297 321 -2048
2020-07-29 16:20:27 GMT 43.039547 2.745797 15,325 297 321 -2048
2020-07-29 16:20:21 GMT 43.035278 2.757696 15,550 297 322 -2048
2020-07-29 16:20:17 GMT 43.032749 2.764696 15,675 297 324 -2048
2020-07-29 16:20:10 GMT 43.027863 2.778299 15,900 297 325 -2112
2020-07-29 16:20:06 GMT 43.025719 2.784184 16,000 297 326 -2176
2020-07-29 16:20:00 GMT 43.021133 2.796851 16,250 297 327 -2048
2020-07-29 16:19:56 GMT 43.019062 2.802625 16,350 297 328 -1984
2020-07-29 16:19:51 GMT 43.014771 2.814544 16,550 297 329 -2048
2020-07-29 16:19:46 GMT 43.012115 2.821889 16,675 297 331 -1984
2020-07-29 16:19:40 GMT 43.008041 2.833195 16,875 297 333 -1984
2020-07-29 16:19:36 GMT 43.005020 2.841499 17,000 297 333 -2048
2020-07-29 16:19:29 GMT 43.000534 2.853960 17,225 297 335 -2112
2020-07-29 16:19:26 GMT 42.998161 2.860565 17,325 297 335 -2048
2020-07-29 16:19:20 GMT 42.994080 2.871775 17,525 297 336 -2048
2020-07-29 16:19:15 GMT 42.990967 2.880398 17,675 297 336 -2048
2020-07-29 16:19:09 GMT 42.986710 2.892151 17,875 297 337 -2048
2020-07-29 16:19:05 GMT 42.983643 2.900582 18,025 297 338 -2048
2020-07-29 16:19:00 GMT 42.979660 2.911441 18,200 297 339 -2048
2020-07-29 16:18:54 GMT 42.976501 2.920128 18,550 297 341 -1920
2020-07-29 16:18:49 GMT 42.972794 2.930411 18,500 297 341 -1984
2020-07-29 16:18:44 GMT 42.969223 2.940248 18,675 297 343 -2048
2020-07-29 16:18:41 GMT 42.965202 2.951333 18,850 297 343 -2048
2020-07-29 16:18:34 GMT 42.961441 2.961774 19,025 297 343 -2112
2020-07-29 16:18:29 GMT 42.958263 2.970559 19,175 297 346 -2112
2020-07-29 16:18:24 GMT 42.955006 2.979715 19,350 297 346 -2048
2020-07-29 16:18:19 GMT 42.951237 2.990112 19,525 297 348 -2048
2020-07-29 16:18:13 GMT 42.947186 3.001295 19,700 297 350 -1984
2020-07-29 16:18:08 GMT 42.943726 3.010829 19,850 297 351 -1984
2020-07-29 16:18:04 GMT 42.940159 3.020586 20,000 297 355 -1920
2020-07-29 16:17:58 GMT 42.936062 3.031834 20,175 297 355 -1920
2020-07-29 16:17:53 GMT 42.932476 3.041513 20,325 297 358 -1984
2020-07-29 16:17:48 GMT 42.929031 3.051006 20,475 297 360 -1984
2020-07-29 16:17:42 GMT 42.924728 3.062822 20,650 297 362 -1984
2020-07-29 16:17:37 GMT 42.920605 3.074145 20,825 297 364 -1984
2020-07-29 16:17:33 GMT 42.917633 3.082304 21,025 297 368 -2048
2020-07-29 16:17:28 GMT 42.913902 3.092455 21,100 297 368 -2048
2020-07-29 16:17:21 GMT 42.908844 3.106320 21,325 297 371 -2048
2020-07-29 16:17:17 GMT 42.905849 3.114559 21,450 297 372 -2048
2020-07-29 16:17:08 GMT 42.897793 3.136531 21,775 297 376 -2048
2020-07-29 16:17:01 GMT 42.889927 3.158046 22,075 297 380 -2048
2020-07-29 16:16:57 GMT 42.889927 3.158046 22,125 297 380 -2048
2020-07-29 16:16:50 GMT 42.884766 3.172302 22,325 297 382 -2048
2020-07-29 16:16:47 GMT 42.882294 3.179169 22,425 297 384 -1984
2020-07-29 16:16:41 GMT 42.876286 3.194994 22,650 299 386 -1984
2020-07-29 16:16:37 GMT 42.871353 3.207114 22,850 300 389 -2048
2020-07-29 16:16:30 GMT 42.867626 3.215594 22,975 302 392 -2048
2020-07-29 16:16:25 GMT 42.863251 3.225010 23,075 303 393 -2048
2020-07-29 16:16:20 GMT 42.853500 3.244991 23,400 304 397 -2112
2020-07-29 16:16:16 GMT 42.853500 3.244991 23,425 304 397 -2112
2020-07-29 16:16:05 GMT 42.842789 3.266772 23,775 304 401 -2048
2020-07-29 16:15:59 GMT 42.835968 3.280760 24,000 304 402 -1984
2020-07-29 16:15:55 GMT 42.832306 3.288170 24,100 304 402 -1984
2020-07-29 16:15:48 GMT 42.824341 3.304394 24,350 304 403 -1984
2020-07-29 16:15:45 GMT 42.820999 3.311228 24,450 304 403 -1984
2020-07-29 16:15:38 GMT 42.813488 3.326503 24,675 304 403 -2048
2020-07-29 16:15:35 GMT 42.811249 3.331029 24,750 304 404 -2048
2020-07-29 16:15:29 GMT 42.805435 3.342974 24,925 304 405 -2048
2020-07-29 16:15:25 GMT 42.800827 3.352299 25,075 304 405 -1984
2020-07-29 16:15:18 GMT 42.792480 3.369245 25,325 304 406 -1920
2020-07-29 16:15:14 GMT 42.789234 3.375805 25,425 304 406 -1984
2020-07-29 16:15:07 GMT 42.781906 3.390656 25,625 304 407 -1984
2020-07-29 16:15:04 GMT 42.778793 3.396960 25,725 304 407 -1984
2020-07-29 16:15:01 GMT 42.775314 3.404014 25,825 304 409 -2048
2020-07-29 16:14:55 GMT 42.768631 3.417497 26,025 304 410 -2048
2020-07-29 16:14:50 GMT 42.762886 3.429203 26,200 304 412 -2048
2020-07-29 16:14:44 GMT 42.757999 3.439040 26,300 304 412 -1984
2020-07-29 16:14:38 GMT 42.750969 3.453284 26,575 304 413 -1920
2020-07-29 16:14:34 GMT 42.745941 3.463632 26,700 304 414 -1600
2020-07-29 16:14:29 GMT 42.741470 3.472702 26,800 304 415 -1600
2020-07-29 16:14:23 GMT 42.730625 3.495121 27,050 304 416 -1536
2020-07-29 16:14:15 GMT 42.725555 3.505637 27,175 304 417 -1536
2020-07-29 16:14:12 GMT 42.724014 3.508854 27,200 304 417 -1536
2020-07-29 16:14:09 GMT 42.720570 3.516008 27,300 304 418 -1536
2020-07-29 16:14:03 GMT 42.713306 3.530955 27,450 304 419 -1536
2020-07-29 16:13:59 GMT 42.709534 3.538534 27,550 304 419 -1600
2020-07-29 16:13:56 GMT 42.705093 3.547585 27,650 304 421 -1536
2020-07-29 16:13:52 GMT 42.702118 3.553640 27,700 304 420 -1536
2020-07-29 16:13:48 GMT 42.698456 3.561068 27,800 304 421 -1472
2020-07-29 16:13:42 GMT 42.691223 3.575738 27,925 304 421 -1472
2020-07-29 16:13:38 GMT 42.687286 3.583779 28,025 304 423 -1536
2020-07-29 16:13:35 GMT 42.678207 3.602110 28,225 304 424 -1536
2020-07-29 16:13:32 GMT 42.676437 3.605751 28,275 304 425 -1536
2020-07-29 16:13:25 GMT 42.671219 3.616250 28,375 304 426 -1344
2020-07-29 16:13:18 GMT 42.665314 3.628172 28,500 304 426 -896
2020-07-29 16:13:14 GMT 42.659771 3.639349 28,550 304 427 -640
2020-07-29 16:13:08 GMT 42.654278 3.650463 28,650 304 428 -640
2020-07-29 16:13:03 GMT 42.649204 3.660747 28,900 304 431 -768
2020-07-29 16:12:58 GMT 42.643204 3.672867 28,725 304 428 -704
2020-07-29 16:12:53 GMT 42.637241 3.684891 28,775 304 430 -704
2020-07-29 16:12:48 GMT 42.632080 3.695339 28,825 304 431 -704
2020-07-29 16:12:41 GMT 42.624626 3.710377 28,900 304 431 -768
2020-07-29 16:12:38 GMT 42.620296 3.719128 28,950 304 431 -768
2020-07-29 16:12:33 GMT 42.615128 3.729411 29,025 304 431 -768
2020-07-29 16:12:27 GMT 42.608047 3.743779 29,100 304 432 -704
2020-07-29 16:12:21 GMT 42.602375 3.755153 29,150 304 432 -640
2020-07-29 16:12:18 GMT 42.598389 3.763192 29,175 304 432 -640
2020-07-29 16:12:12 GMT 42.591480 3.776997 29,250 304 432 -640
2020-07-29 16:12:07 GMT 42.586548 3.786898 29,300 304 432 -640
2020-07-29 16:12:01 GMT 42.578613 3.802893 29,350 304 432 -640
2020-07-29 16:11:57 GMT 42.575226 3.809634 29,375 304 433 -640
2020-07-29 16:11:51 GMT 42.568764 3.822603 29,450 304 433 -640
2020-07-29 16:11:48 GMT 42.564148 3.831981 29,475 304 435 -640
2020-07-29 16:11:41 GMT 42.556046 3.848211 29,550 304 436 -640
2020-07-29 16:11:37 GMT 42.552563 3.855179 29,600 304 437 -576
2020-07-29 16:11:32 GMT 42.545582 3.869295 29,650 304 437 -512
2020-07-29 16:11:26 GMT 42.540737 3.879004 29,700 304 437 -512
2020-07-29 16:11:20 GMT 42.532516 3.895527 29,750 304 437 -576
2020-07-29 16:11:17 GMT 42.528900 3.902768 29,775 304 438 -576
2020-07-29 16:11:09 GMT 42.521118 3.918374 29,825 304 439 -640
2020-07-29 16:11:06 GMT 42.517509 3.925632 29,875 304 440 -640
2020-07-29 16:10:59 GMT 42.509033 3.942656 29,925 305 441 -384
2020-07-29 16:10:56 GMT 42.506104 3.948524 29,950 305 441 -256
2020-07-29 16:10:49 GMT 42.497631 3.965553 29,975 305 441 -64
2020-07-29 16:10:46 GMT 42.494328 3.972132 29,975 304 442 -64
2020-07-29 16:10:39 GMT 42.485596 3.989598 29,975 304 443 -128
2020-07-29 16:10:35 GMT 42.482639 3.995574 29,975 305 444 -192
2020-07-29 16:10:29 GMT 42.475147 4.010521 30,000 305 445 -320
2020-07-29 16:10:25 GMT 42.470947 4.018811 30,025 305 446 64
2020-07-29 16:10:20 GMT 42.464626 4.031280 30,025 305 445 384
2020-07-29 16:10:16 GMT 42.458805 4.042905 29,950 305 449 320
2020-07-29 16:10:10 GMT 42.452866 4.054642 29,925 305 456 128
2020-07-29 16:10:05 GMT 42.446705 4.066922 29,925 304 461 128
2020-07-29 16:09:59 GMT 42.434784 4.090874 29,950 305 470 0
2020-07-29 16:09:55 GMT 42.434784 4.090874 29,950 305 470 0
2020-07-29 16:09:50 GMT 42.427826 4.104704 29,950 305 470 0
2020-07-29 16:09:45 GMT 42.422588 4.115146 29,950 305 470 64
2020-07-29 16:08:47 GMT 42.349457 4.260823 29,950 304 477 0
2020-07-29 16:08:43 GMT 42.346024 4.267627 29,950 305 475 64
2020-07-29 16:08:38 GMT 42.339935 4.279424 29,950 305 476 64
2020-07-29 16:08:35 GMT 42.335632 4.287727 29,950 306 476 -256
2020-07-29 16:08:32 GMT 42.332977 4.293035 29,950 306 474 -256
2020-07-29 16:08:27 GMT 42.325928 4.306453 29,950 305 479 -128
2020-07-29 16:08:22 GMT 42.318787 4.320374 29,975 305 479 -128
2020-07-29 16:08:18 GMT 42.313702 4.330338 29,975 305 480 -192
2020-07-29 16:08:12 GMT 42.306210 4.345029 29,975 305 481 -192
2020-07-29 16:08:07 GMT 42.301319 4.354674 30,000 305 481 0
2020-07-29 16:08:04 GMT 42.296711 4.363744 30,000 305 481 0
2020-07-29 16:08:00 GMT 42.292786 4.371497 30,000 305 481 64
2020-07-29 16:07:57 GMT 42.288345 4.380174 30,000 305 482 64
2020-07-29 16:07:53 GMT 42.283813 4.389163 30,000 305 483 0
2020-07-29 16:07:50 GMT 42.280197 4.396217 30,000 305 484 0
2020-07-29 16:07:46 GMT 42.275208 4.406017 30,000 305 484 -64
2020-07-29 16:07:43 GMT 42.271202 4.413885 30,000 305 484 -64
2020-07-29 16:07:40 GMT 42.266785 4.422559 30,000 305 484 -64
2020-07-29 16:07:34 GMT 42.258678 4.438477 30,000 305 484 0
2020-07-29 16:07:30 GMT 42.253464 4.448714 30,000 305 485 -64
2020-07-29 16:07:27 GMT 42.245689 4.464026 30,000 305 485 0
2020-07-29 16:07:19 GMT 42.240555 4.474120 30,025 305 483 -128
2020-07-29 16:07:16 GMT 42.236481 4.482110 30,025 305 485 128
2020-07-29 16:07:10 GMT 42.228470 4.497778 30,000 305 491 -256
2020-07-29 16:07:00 GMT 42.215710 4.522918 30,000 305 487 0
2020-07-29 16:06:53 GMT 42.205994 4.542160 30,000 304 490 64
2020-07-29 16:06:50 GMT 42.199997 4.553583 30,000 305 479 256
2020-07-29 16:06:45 GMT 42.197369 4.558751 30,000 305 487 192
2020-07-29 16:06:42 GMT 42.192856 4.567694 30,000 305 489 64
2020-07-29 16:06:39 GMT 42.189011 4.575244 30,000 305 489 -128
2020-07-29 16:06:36 GMT 42.180038 4.592722 30,000 305 487 64
2020-07-29 16:06:28 GMT 42.175095 4.602522 30,000 304 489 128
2020-07-29 16:06:25 GMT 42.171116 4.610106 30,000 305 489 320
2020-07-29 16:06:19 GMT 42.161591 4.628927 30,000 305 488 128
2020-07-29 16:06:14 GMT 42.157661 4.636678 30,000 305 490 -128
2020-07-29 16:06:07 GMT 42.147697 4.656095 30,000 305 492 0
2020-07-29 16:06:04 GMT 42.145111 4.661262 30,000 305 489 -320
2020-07-29 16:05:58 GMT 42.136963 4.677180 30,000 305 491 -64
2020-07-29 16:05:55 GMT 42.131779 4.687330 30,000 305 488 0
2020-07-29 16:05:47 GMT 42.118603 4.713199 30,000 305 489 -192
2020-07-29 16:05:44 GMT 42.108315 4.733127 30,000 305 489 -320
2020-07-29 16:05:37 GMT 42.108315 4.733127 30,000 305 492 -256
2020-07-29 16:05:34 GMT 42.105659 4.738429 30,000 305 490 -128
2020-07-29 16:05:31 GMT 42.101982 4.745391 30,000 305 490 192
2020-07-29 16:05:28 GMT 42.097595 4.754021 30,000 305 490 -64
2020-07-29 16:05:24 GMT 42.093559 4.761807 30,000 305 490 0
2020-07-29 16:05:21 GMT 42.088989 4.770688 30,000 305 490 -64
2020-07-29 16:05:18 GMT 42.080383 4.787356 30,025 305 490 0
2020-07-29 16:05:14 GMT 42.080383 4.787356 30,025 305 490 0
2020-07-29 16:05:11 GMT 42.076355 4.795220 30,025 305 490 128
2020-07-29 16:05:08 GMT 42.071732 4.804147 30,025 305 496 -128
2020-07-29 16:05:04 GMT 42.066372 4.814503 30,025 305 494 -320
2020-07-29 16:04:58 GMT 42.057404 4.831924 30,025 305 498 128
2020-07-29 16:04:55 GMT 42.048203 4.849465 30,025 304 490 384
2020-07-29 16:04:26 GMT 42.052361 4.962627 30,025 305 496 64
2020-07-29 16:04:21 GMT 42.045410 4.976058 30,025 307 496 64
2020-07-29 16:04:16 GMT 42.039230 4.987282 30,025 308 496 64
2020-07-29 16:04:11 GMT 42.030807 5.000714 30,000 311 496 64
2020-07-29 16:04:07 GMT 42.024765 5.009516 30,000 315 496 64
2020-07-29 16:04:00 GMT 42.014648 5.022749 30,000 319 495 64
2020-07-29 16:03:56 GMT 42.007481 5.030972 30,000 321 495 64
2020-07-29 16:03:50 GMT 41.996063 5.042974 30,000 325 494 0
2020-07-29 16:03:46 GMT 41.988441 5.050070 30,000 327 493 0
2020-07-29 16:03:40 GMT 41.976562 5.060078 30,000 330 492 0
2020-07-29 16:03:36 GMT 41.966629 5.067444 30,000 332 492 0
2020-07-29 16:03:30 GMT 41.956787 5.074278 30,000 335 490 0
2020-07-29 16:03:22 GMT 41.941147 5.084051 30,000 335 491 0
2020-07-29 16:03:19 GMT 41.934082 5.088543 30,000 335 491 0
2020-07-29 16:03:14 GMT 41.924469 5.094535 30,000 335 491 0
2020-07-29 16:03:11 GMT 41.917511 5.098967 30,000 335 491 -64
2020-07-29 16:03:08 GMT 41.911865 5.102511 30,000 335 491 -64
2020-07-29 16:03:04 GMT 41.902508 5.108259 30,000 335 491 -64
2020-07-29 16:03:00 GMT 41.892929 5.114261 30,000 336 490 -64
2020-07-29 16:02:54 GMT 41.883095 5.120459 30,000 336 489 -64
2020-07-29 16:02:51 GMT 41.875580 5.125060 30,025 336 489 -64
2020-07-29 16:02:43 GMT 41.858505 5.135796 30,025 336 489 0
2020-07-29 16:02:40 GMT 41.854465 5.138344 30,025 336 489 0
2020-07-29 16:02:31 GMT 41.835892 5.149841 30,025 336 489 0
2020-07-29 16:02:28 GMT 41.830856 5.153150 30,025 336 489 0
2020-07-29 16:02:22 GMT 41.818222 5.160952 30,025 335 490 0
2020-07-29 16:02:18 GMT 41.810101 5.166001 30,025 335 490 0
2020-07-29 16:02:11 GMT 41.793995 5.176094 30,000 335 491 0
2020-07-29 16:02:08 GMT 41.788605 5.179367 30,000 335 491 0
2020-07-29 16:02:02 GMT 41.775932 5.187463 30,000 335 491 0
2020-07-29 16:01:59 GMT 41.766998 5.192975 30,000 335 491 0
2020-07-29 16:01:50 GMT 41.752048 5.202218 30,000 336 490 0
2020-07-29 16:01:39 GMT 41.728409 5.216945 30,000 336 490 0
2020-07-29 16:01:32 GMT 41.713623 5.226059 30,000 336 490 0
2020-07-29 16:01:29 GMT 41.707409 5.230067 30,000 336 490 0
2020-07-29 16:01:18 GMT 41.685760 5.243417 30,000 336 490 0
2020-07-29 16:01:15 GMT 41.679661 5.247185 30,000 336 490 0
2020-07-29 16:01:09 GMT 41.667698 5.254531 30,000 336 490 0
2020-07-29 16:01:06 GMT 41.658154 5.260599 30,000 336 490 0
2020-07-29 16:00:58 GMT 41.643265 5.269692 30,000 336 490 0
2020-07-29 16:00:50 GMT 41.627472 5.279430 30,000 336 490 0
2020-07-29 16:00:47 GMT 41.619781 5.284237 30,000 336 490 0
2020-07-29 16:00:37 GMT 41.600555 5.296097 30,000 336 490 0
2020-07-29 16:00:30 GMT 41.584881 5.305885 30,000 336 490 0
2020-07-29 16:00:27 GMT 41.579899 5.308824 30,000 336 490 0
2020-07-29 16:00:20 GMT 41.565445 5.317757 30,000 336 489 0
2020-07-29 16:00:17 GMT 41.559044 5.321662 30,000 336 489 0
2020-07-29 16:00:07 GMT 41.538422 5.334309 30,000 336 489 64
2020-07-29 15:59:54 GMT 41.513191 5.349831 30,000 336 489 0
2020-07-29 15:59:46 GMT 41.496048 5.360454 30,000 336 489 0
2020-07-29 15:59:36 GMT 41.475578 5.372953 30,000 336 487 0
2020-07-29 15:59:25 GMT 41.453979 5.386172 30,000 336 488 0
2020-07-29 15:59:15 GMT 41.433212 5.399078 30,000 336 487 0
2020-07-29 15:59:05 GMT 41.412735 5.411641 30,000 336 487 0
2020-07-29 15:58:55 GMT 41.392200 5.424116 30,000 336 486 -64
2020-07-29 15:58:45 GMT 41.371159 5.436859 30,000 336 486 0
2020-07-29 15:58:35 GMT 41.350491 5.449531 30,000 336 486 0
2020-07-29 15:58:25 GMT 41.328278 5.463135 30,000 336 486 0
2020-07-29 15:58:14 GMT 41.306946 5.476013 30,000 336 486 0
2020-07-29 15:58:04 GMT 41.286392 5.488525 30,000 336 485 0
2020-07-29 15:57:53 GMT 41.265335 5.501221 30,000 336 485 0
2020-07-29 15:57:44 GMT 41.244736 5.513733 30,000 336 485 0
2020-07-29 15:57:34 GMT 41.160885 5.564575 30,000 336 485 0
2020-07-29 15:57:02 GMT 41.160885 5.564575 30,000 336 485 0
2020-07-29 15:56:31 GMT 41.038685 5.551092 30,000 336 551 256
2020-07-29 15:56:21 GMT 41.038685 5.551092 30,000 336 551 256
2020-07-29 15:56:12 GMT 41.018692 5.562866 30,000 336 563 384
2020-07-29 15:56:05 GMT 40.992599 5.578308 30,000 336 592 256
2020-07-29 15:56:00 GMT 40.992599 5.578308 30,000 336 485 0
2020-07-29 15:55:55 GMT 40.985058 5.582803 30,000 336 592 256
2020-07-29 15:55:51 GMT 40.977081 5.587585 30,000 336 598 128
2020-07-29 15:55:44 GMT 40.962620 5.596098 30,000 336 609 64
2020-07-29 15:55:41 GMT 40.955978 5.600098 30,000 336 613 64
2020-07-29 15:54:46 GMT 40.840836 5.666324 30,000 336 484 -64
2020-07-29 15:54:41 GMT 40.833389 5.672729 30,000 336 484 0
2020-07-29 15:54:36 GMT 40.821564 5.679370 30,000 337 487 192
2020-07-29 15:54:26 GMT 40.803036 5.690419 30,000 336 484 0
2020-07-29 15:53:56 GMT 40.738449 5.728516 30,000 336 488 512
2020-07-29 15:53:53 GMT 40.734055 5.730957 30,000 336 499 -320
2020-07-29 15:53:42 GMT 40.707325 5.746724 30,000 336 483 0
2020-07-29 15:53:30 GMT 40.688610 5.757647 30,000 337 484 0
2020-07-29 15:53:02 GMT 40.629768 5.792167 30,000 336 483 -128
2020-07-29 15:52:48 GMT 40.601280 5.808959 30,000 336 485 64
2020-07-29 15:52:44 GMT 40.593750 5.813416 30,000 337 482 -64
2020-07-29 15:52:39 GMT 40.582890 5.819758 30,000 336 481 -256
2020-07-29 15:52:31 GMT 40.566273 5.829433 30,000 337 484 -64
2020-07-29 15:52:16 GMT 40.535751 5.847290 30,000 337 484 -64
2020-07-29 15:52:09 GMT 40.522659 5.854858 30,025 337 484 -64
2020-07-29 15:51:59 GMT 40.501328 5.867310 30,025 337 484 -128
2020-07-29 15:51:56 GMT 40.482990 5.877935 30,025 337 485 192
2020-07-29 15:51:51 GMT 40.482990 5.877935 30,025 337 484 64
2020-07-29 15:51:45 GMT 40.474007 5.883179 30,025 337 484 128
2020-07-29 15:51:34 GMT 40.450310 5.897036 30,025 336 486 0
2020-07-29 15:51:25 GMT 40.431782 5.907836 30,025 337 484 128
2020-07-29 15:51:18 GMT 40.417557 5.916138 30,025 336 486 0
2020-07-29 15:50:47 GMT 40.353745 5.953308 30,000 337 487 0
2020-07-29 15:49:37 GMT 40.209045 6.036926 30,000 337 479 -576
2020-07-29 15:49:31 GMT 40.196926 6.044103 30,000 337 482 -64
2020-07-29 15:49:22 GMT 40.177322 6.055176 29,975 337 477 576
2020-07-29 15:49:17 GMT 40.166901 6.061207 29,975 336 476 640
2020-07-29 15:49:06 GMT 40.142368 6.075752 29,975 337 488 64
2020-07-29 15:49:01 GMT 40.134731 6.079934 29,975 337 491 192
2020-07-29 15:48:50 GMT 40.112480 6.092606 29,975 337 486 0
2020-07-29 15:48:40 GMT 40.090759 6.105286 29,975 337 485 -64
2020-07-29 15:48:30 GMT 40.070538 6.116888 30,000 337 484 0
2020-07-29 15:48:26 GMT 40.061920 6.121887 29,975 337 485 0
2020-07-29 15:48:19 GMT 40.048141 6.129822 30,000 337 485 0
2020-07-29 15:48:08 GMT 40.025894 6.142606 30,000 337 487 0
2020-07-29 15:47:58 GMT 40.005798 6.154175 29,975 337 484 0
2020-07-29 15:47:48 GMT 39.984329 6.166504 29,975 337 484 0
2020-07-29 15:47:38 GMT 39.963318 6.178589 30,000 337 484 0
2020-07-29 15:47:32 GMT 39.952156 6.184991 30,000 337 484 0
2020-07-29 15:47:26 GMT 39.939743 6.192139 30,000 337 484 0
2020-07-29 15:47:16 GMT 39.917404 6.204947 29,975 337 484 0
2020-07-29 15:47:05 GMT 39.896484 6.216888 29,975 337 486 -128
2020-07-29 15:46:55 GMT 39.874691 6.229309 30,000 337 484 -64
2020-07-29 15:46:44 GMT 39.852531 6.242004 30,000 337 484 0
2020-07-29 15:46:35 GMT 39.833679 6.252747 30,025 337 486 0
2020-07-29 15:46:25 GMT 39.813904 6.263998 30,000 337 484 0
2020-07-29 15:46:14 GMT 39.791519 6.276776 30,000 337 484 0
2020-07-29 15:46:03 GMT 39.769775 6.289135 30,000 337 486 0
2020-07-29 15:45:53 GMT 39.749512 6.300720 30,000 337 485 -64
2020-07-29 15:45:43 GMT 39.727844 6.313019 30,000 337 486 -64
2020-07-29 15:45:33 GMT 39.706497 6.325134 30,025 337 486 -64
2020-07-29 15:45:22 GMT 39.684757 6.337463 30,025 337 486 -64
2020-07-29 15:45:18 GMT 39.673401 6.343872 30,025 337 487 0
2020-07-29 15:45:11 GMT 39.661949 6.350342 30,025 337 488 0
2020-07-29 15:45:07 GMT 39.652908 6.355471 30,025 337 488 64
2020-07-29 15:45:01 GMT 39.641464 6.361920 30,025 337 488 64
2020-07-29 15:44:51 GMT 39.620499 6.373862 30,000 337 488 0
2020-07-29 15:44:39 GMT 39.594307 6.388672 30,025 337 490 -64
2020-07-29 15:44:34 GMT 39.583878 6.394580 30,025 337 490 0
2020-07-29 15:44:30 GMT 39.577549 6.398193 30,025 337 490 64
2020-07-29 15:44:23 GMT 39.562744 6.406555 30,025 337 490 64
2020-07-29 15:44:20 GMT 39.555267 6.410761 30,000 337 490 64
2020-07-29 15:44:09 GMT 39.533508 6.423096 30,000 337 491 0
2020-07-29 15:44:03 GMT 39.519424 6.431062 30,000 337 491 0
2020-07-29 15:43:58 GMT 39.510700 6.435974 30,000 337 491 0
2020-07-29 15:43:53 GMT 39.489304 6.448079 30,000 337 491 -64
2020-07-29 15:43:48 GMT 39.489304 6.448079 30,000 337 491 -64
2020-07-29 15:43:43 GMT 39.477631 6.454647 30,000 337 490 0
2020-07-29 15:43:37 GMT 39.466507 6.460916 30,000 337 490 0
2020-07-29 15:43:32 GMT 39.454834 6.467544 30,000 337 491 0
2020-07-29 15:43:27 GMT 39.444691 6.473206 30,000 337 491 0
2020-07-29 15:43:22 GMT 39.434402 6.478943 30,000 337 491 0
2020-07-29 15:43:18 GMT 39.426067 6.483643 30,000 337 491 0
2020-07-29 15:43:12 GMT 39.411545 6.491821 30,000 337 491 -64
2020-07-29 15:43:06 GMT 39.400909 6.497756 30,025 337 490 0
2020-07-29 15:43:02 GMT 39.381424 6.508728 30,025 337 492 -64
2020-07-29 15:42:56 GMT 39.381424 6.508728 30,025 337 492 -64
2020-07-29 15:42:51 GMT 39.369690 6.515311 30,025 337 493 -64
2020-07-29 15:42:47 GMT 39.361034 6.520203 30,025 337 493 -64
2020-07-29 15:42:36 GMT 39.339062 6.532532 30,025 337 491 64
2020-07-29 15:42:26 GMT 39.317276 6.544800 30,000 337 491 0
2020-07-29 15:42:15 GMT 39.294937 6.557345 30,000 337 491 64
2020-07-29 15:42:12 GMT 39.286503 6.562073 30,000 337 494 -256
2020-07-29 15:42:00 GMT 39.263462 6.575012 30,000 337 491 64
2020-07-29 15:41:54 GMT 39.251495 6.581665 29,975 337 492 64
2020-07-29 15:41:50 GMT 39.242744 6.586487 29,975 337 492 64
2020-07-29 15:41:43 GMT 39.228733 6.594299 29,975 337 492 64
2020-07-29 15:41:40 GMT 39.222427 6.597827 29,975 337 491 0
2020-07-29 15:41:33 GMT 39.207367 6.606187 29,975 337 491 0
2020-07-29 15:41:29 GMT 39.196144 6.612488 29,975 337 491 -64
2020-07-29 15:41:18 GMT 39.176640 6.623474 29,975 337 491 -64
2020-07-29 15:41:10 GMT 39.160210 6.632690 29,975 337 489 0
2020-07-29 15:41:02 GMT 39.142567 6.642578 29,975 337 489 0
2020-07-29 15:40:58 GMT 39.132977 6.647888 29,975 337 489 0
2020-07-29 15:40:46 GMT 39.109543 6.660999 29,975 337 489 0
2020-07-29 15:40:38 GMT 39.092331 6.670672 29,975 337 488 -64
2020-07-29 15:40:35 GMT 39.086014 6.674194 29,975 337 488 -64
2020-07-29 15:40:26 GMT 39.067150 6.684814 29,975 337 488 -64
2020-07-29 15:40:18 GMT 39.050949 6.693909 30,000 337 488 -64
2020-07-29 15:40:15 GMT 39.045547 6.696943 30,000 337 488 -64
2020-07-29 15:40:08 GMT 39.029629 6.705933 30,000 337 488 0
2020-07-29 15:40:04 GMT 39.023300 6.709482 30,000 337 488 0
2020-07-29 15:39:57 GMT 39.008148 6.718080 30,000 337 488 0
2020-07-29 15:39:54 GMT 39.001602 6.721782 30,000 337 488 0
2020-07-29 15:39:48 GMT 38.986404 6.730320 30,000 337 489 0
2020-07-29 15:39:44 GMT 38.979958 6.733887 30,000 338 488 0
2020-07-29 15:39:37 GMT 38.965668 6.741577 30,000 339 490 -64
2020-07-29 15:39:33 GMT 38.958591 6.745178 30,000 339 489 -64
2020-07-29 15:39:27 GMT 38.944473 6.752353 30,025 339 489 0
2020-07-29 15:39:22 GMT 38.934525 6.757446 30,025 339 489 -64
2020-07-29 15:39:16 GMT 38.922409 6.763578 30,025 339 490 0
2020-07-29 15:39:12 GMT 38.913574 6.768056 30,025 339 490 0
2020-07-29 15:39:06 GMT 38.901703 6.774048 30,025 339 491 0
2020-07-29 15:39:01 GMT 38.891182 6.779358 30,025 339 490 -64
2020-07-29 15:38:56 GMT 38.879684 6.785156 30,025 339 490 -64
2020-07-29 15:38:51 GMT 38.870041 6.789909 30,025 339 491 -64
2020-07-29 15:38:47 GMT 38.858322 6.795820 30,025 339 491 -64
2020-07-29 15:38:41 GMT 38.847843 6.801086 30,025 339 492 0
2020-07-29 15:38:36 GMT 38.837357 6.806389 30,025 339 491 64
2020-07-29 15:38:30 GMT 38.824997 6.812658 30,025 339 492 0
2020-07-29 15:38:25 GMT 38.812695 6.819031 30,025 338 491 64
2020-07-29 15:38:20 GMT 38.804035 6.823608 30,025 338 492 0
2020-07-29 15:38:15 GMT 38.793423 6.829346 30,025 338 492 0
2020-07-29 15:38:08 GMT 38.778900 6.837198 30,025 337 492 0
2020-07-29 15:38:05 GMT 38.772472 6.840698 30,025 337 493 0
2020-07-29 15:37:59 GMT 38.755920 6.849856 30,025 338 494 0
2020-07-29 15:37:55 GMT 38.751068 6.852543 30,025 337 493 64
2020-07-29 15:37:49 GMT 38.737934 6.859802 30,025 337 493 0
2020-07-29 15:37:44 GMT 38.728111 6.865234 30,000 337 493 0
2020-07-29 15:37:25 GMT 38.716984 6.941467 30,025 338 494 0
2020-07-29 15:37:17 GMT 38.700531 6.950226 30,000 338 494 0
2020-07-29 15:37:14 GMT 38.695129 6.953032 30,000 338 494 0
2020-07-29 15:36:03 GMT 38.544708 7.032444 30,000 338 493 0
2020-07-29 15:35:53 GMT 38.523331 7.043789 30,000 338 492 0
2020-07-29 15:35:43 GMT 38.502045 7.055312 30,000 338 492 0
2020-07-29 15:35:33 GMT 38.481056 7.066467 30,000 338 492 0
2020-07-29 15:35:22 GMT 38.458923 7.078300 30,000 338 491 -64
2020-07-29 15:35:12 GMT 38.436321 7.090332 30,025 338 490 0
2020-07-29 15:35:02 GMT 38.414291 7.102004 30,000 338 490 0
2020-07-29 15:34:52 GMT 38.395542 7.111916 30,000 338 490 0
2020-07-29 15:34:42 GMT 38.373734 7.123582 30,000 338 490 0
2020-07-29 15:34:31 GMT 38.351395 7.135445 30,000 338 490 0
2020-07-29 15:34:21 GMT 38.330017 7.146782 30,000 338 491 0
2020-07-29 15:34:12 GMT 38.308731 7.157943 30,000 338 490 0
2020-07-29 15:33:59 GMT 38.284885 7.170669 30,000 338 490 0
2020-07-29 15:33:49 GMT 38.264217 7.181775 30,000 338 489 0
2020-07-29 15:32:40 GMT 38.092255 7.214435 30,000 338 488 0
2020-07-29 15:32:36 GMT 38.086304 7.217901 30,000 339 585 3648
2020-07-29 15:32:26 GMT 38.064789 7.229541 30,000 339 596 4032
2020-07-29 15:32:19 GMT 38.050552 7.237302 30,000 339 605 4864
2020-07-29 15:32:14 GMT 38.040348 7.242916 30,000 339 605 5440
2020-07-29 15:32:05 GMT 38.021957 7.252648 30,000 339 617 6464
2020-07-29 15:31:39 GMT 37.962616 7.284987 30,000 338 488 0
2020-07-29 15:31:27 GMT 37.940865 7.293131 30,000 338 488 0
2020-07-29 15:31:11 GMT 37.906769 7.315375 30,000 338 488 0
2020-07-29 15:31:07 GMT 37.899902 7.319174 30,000 336 481 -640
2020-07-29 15:31:03 GMT 37.892918 7.322806 30,000 336 479 -896
2020-07-29 15:30:51 GMT 37.868896 7.336001 30,000 337 476 -128
2020-07-29 15:30:48 GMT 37.860214 7.340679 30,000 337 478 -64
2020-07-29 15:30:42 GMT 37.848179 7.347167 30,000 337 468 128
2020-07-29 15:30:38 GMT 37.838264 7.352600 30,000 336 465 256
2020-07-29 15:30:32 GMT 37.827988 7.358210 30,000 336 459 512
2020-07-29 15:30:20 GMT 37.827118 7.410804 30,025 338 486 -64
2020-07-29 15:30:17 GMT 37.819565 7.414778 30,025 338 486 -64
2020-07-29 15:30:07 GMT 37.797810 7.426041 30,025 338 487 -64
2020-07-29 15:29:57 GMT 37.777405 7.436751 30,050 338 487 -64
2020-07-29 15:29:49 GMT 37.760895 7.445267 30,050 338 487 0
2020-07-29 15:29:46 GMT 37.755356 7.448193 30,050 338 487 0
2020-07-29 15:29:37 GMT 37.735058 7.458702 30,050 338 488 0
2020-07-29 15:29:26 GMT 37.712296 7.470524 30,050 338 489 0
2020-07-29 15:29:19 GMT 37.698795 7.477450 30,050 338 489 0
2020-07-29 15:29:15 GMT 37.690556 7.481749 30,050 338 489 0
2020-07-29 15:29:06 GMT 37.670536 7.492198 30,025 338 490 64
2020-07-29 15:28:58 GMT 37.654476 7.500378 30,025 338 491 0
2020-07-29 15:28:55 GMT 37.648705 7.503364 30,025 338 491 0
2020-07-29 15:28:46 GMT 37.626312 7.514947 30,025 338 491 64
2020-07-29 15:28:36 GMT 37.608582 7.524115 30,025 338 491 64
2020-07-29 15:28:25 GMT 37.584732 7.536446 30,000 338 491 64
2020-07-29 15:28:10 GMT 37.553146 7.552750 30,025 338 491 -64
2020-07-29 15:28:04 GMT 37.540424 7.559310 30,025 338 491 0
2020-07-29 15:27:55 GMT 37.521790 7.568937 30,000 338 491 0
2020-07-29 15:27:45 GMT 37.500137 7.580216 30,025 338 490 -64
2020-07-29 15:27:35 GMT 37.478943 7.591085 30,025 338 490 0
2020-07-29 15:27:24 GMT 37.457062 7.602364 30,025 338 490 0
2020-07-29 15:27:13 GMT 37.434540 7.613876 30,025 338 490 0
2020-07-29 15:27:03 GMT 37.412384 7.625213 30,025 338 489 0
2020-07-29 15:26:52 GMT 37.389359 7.637076 30,025 338 489 0
2020-07-29 15:26:43 GMT 37.370132 7.646835 30,025 338 489 0
2020-07-29 15:26:27 GMT 37.337585 7.663724 30,025 338 490 0
2020-07-29 15:26:16 GMT 37.312683 7.676521 30,025 338 490 0
2020-07-29 15:26:00 GMT 37.281128 7.692519 30,025 338 490 0
2020-07-29 15:25:51 GMT 37.260132 7.703286 30,025 338 490 64
2020-07-29 15:25:40 GMT 37.238754 7.714331 30,000 338 490 64
2020-07-29 15:25:20 GMT 37.194992 7.736654 30,000 338 489 128
2020-07-29 15:25:08 GMT 37.170044 7.749394 29,950 338 488 256
2020-07-29 15:24:59 GMT 37.151573 7.758796 29,950 338 489 0
We lost coverage of the aircraft here for a total of 6 minutes
2020-07-29 15:18:59 GMT 36.834869 8.526421 29,225 271 468 1856
2020-07-29 15:16:33 GMT 36.835922 8.913517 25,625 270 457 1152
2020-07-29 15:16:25 GMT 36.836040 8.934105 25,500 270 454 1024
2020-07-29 15:16:15 GMT 36.836151 8.961411 25,325 270 450 1344
2020-07-29 15:15:54 GMT 36.836426 9.014511 24,700 270 449 2176
2020-07-29 15:15:44 GMT 36.836506 9.041514 24,350 270 448 1920
2020-07-29 15:15:34 GMT 36.836647 9.067987 24,050 270 446 1472
2020-07-29 15:15:15 GMT 36.836838 9.114361 23,575 270 441 1856
2020-07-29 15:15:12 GMT 36.836884 9.122028 23,500 270 441 1856
2020-07-29 15:15:01 GMT 36.836971 9.149741 23,150 270 439 2048
2020-07-29 15:14:39 GMT 36.837158 9.205399 22,450 270 432 2048
2020-07-29 15:14:31 GMT 36.837250 9.227028 22,175 270 434 2048
2020-07-29 15:14:20 GMT 36.837299 9.253410 21,850 270 432 1856
2020-07-29 15:14:09 GMT 36.837299 9.280701 21,500 270 429 2048
2020-07-29 15:13:59 GMT 36.837299 9.306706 21,150 270 427 2304
2020-07-29 15:13:47 GMT 36.837345 9.335749 20,725 270 426 2112
2020-07-29 15:13:36 GMT 36.837341 9.361553 20,425 270 423 1536
2020-07-29 15:13:27 GMT 36.837387 9.384212 20,225 270 418 1280
2020-07-29 15:13:06 GMT 36.839584 9.434052 19,525 263 411 2880
2020-07-29 15:12:49 GMT 36.844940 9.474335 18,725 261 413 2752
2020-07-29 15:12:07 GMT 36.858570 9.571480 17,050 261 408 2176
2020-07-29 15:11:52 GMT 36.863434 9.606141 16,550 261 400 2112
2020-07-29 15:11:28 GMT 36.871140 9.661102 15,825 261 393 2688
2020-07-29 15:11:20 GMT 36.874027 9.681940 15,250 261 392 3328
2020-07-29 15:11:11 GMT 36.876541 9.699913 14,775 261 393 3136
2020-07-29 15:10:59 GMT 36.880077 9.725587 14,250 261 393 3008
2020-07-29 15:10:43 GMT 36.885178 9.762346 13,475 261 391 3072
2020-07-29 15:10:38 GMT 36.886642 9.772996 13,250 261 391 3264
2020-07-29 15:10:28 GMT 36.889530 9.793953 12,750 261 392 3392
2020-07-29 15:10:17 GMT 36.893051 9.819615 12,200 261 390 2432
2020-07-29 15:10:07 GMT 36.896187 9.842257 11,800 261 385 3136
2020-07-29 15:09:56 GMT 36.899460 9.866424 11,300 261 382 2688
2020-07-29 15:09:44 GMT 36.903309 9.894621 10,750 261 382 2624
2020-07-29 15:09:06 GMT 36.914062 9.973556 8,900 261 376 3456
2020-07-29 15:09:02 GMT 36.915272 9.982273 8,675 261 376 3456
2020-07-29 15:08:12 GMT 36.929565 10.086823 7,050 261 332 1088

Making use of Plane Finder data

You are free to use the raw flight data, aircraft information and images provided in this report for your own purposes provided the data is correctly attributed to Plane Finder. We ask that you please credit Plane Finder and link to planefinder.net in close proximity to the content.

Optionally one of the following logos (no smaller then 150x24px) can be used and must link to planefinder.net

Embedding the Plane Finder map

You are welcome to embed the Plane Finder playback map on your website to offer visitors a more interactive experience. We suggest using the following HTML code:

<iframe src="//planefinder.net/data/report/TU282-TS-IMM-7700-squawk-2020-07-29/map" width="800" height="600" seamless="seamless"></iframe>

Where our data comes from

Plane Finder has a global network of data feeds and antenna radars that receive data broadcast directly from aircraft. The primary technologies used are ADS-B and MLAT. We also show feeds from the FAA and a FLARM glider feed.

Click here to find out more about the Plane Finder network.

How we collect our data